YBLD weather

Brooklands Airport
Western Australia, Australia

Public forecast

Using degrees Celsius for public forecast. Weather courtesy of forecast.io.

Closest aviation weather report (METAR) to Brooklands Airport

Closest report is RAAF Base Pearce, 41.0 nm (75.9 km) WNW. Retrieved 2019/10/20 08:30 UTC (0 seconds ago):

YPEA 200830Z AUTO 28012KT 9999 // BKN029 22/14 Q1016

Closest aviation forecast (TAF) to Brooklands Airport

Closest forecast is RAAF Base Pearce, 41.0 nm (75.9 km) WNW. Retrieved 2019/10/20 06:00 UTC (2 hours ago):

TAF YPEA 200505Z 2006/2024 27014KT 9999 SCT035 FM201000 25007KT 9999 BKN020